Time;durP1;ratioP1;P1;durP2;ratioP2;P2;SDS_P1;SDS_P2;PMS_P1;PMS_P2;Temp;Humidity;BMP_temperature;BMP_pressure;BME280_temperature;BME280_humidity;BME280_pressure;Samples;Min_cycle;Max_cycle;Signal;HPM_P1;HPM_P2
2023/09/14 00:02:44;;;;;;;45.90;25.30;;;;;;;;;;8348754;28;20087;-92
2023/09/14 00:06:47;;;;;;;44.65;24.95;;;;;;;;;;8363236;28;20052;-91
2023/09/14 00:10:55;;;;;;;42.25;24.48;;;;;;;;;;8355914;28;20063;-92
2023/09/14 00:14:58;;;;;;;42.53;24.27;;;;;;;;;;8354630;28;20044;-90
2023/09/14 00:19:03;;;;;;;45.10;25.15;;;;;;;;;;8362564;28;20557;-91
2023/09/14 00:23:05;;;;;;;49.92;23.48;;;;;;;;;;8362490;28;20072;-92
2023/09/14 00:27:08;;;;;;;38.90;23.23;;;;;;;;;;8362325;28;20477;-91
2023/09/14 00:31:11;;;;;;;43.67;23.77;;;;;;;;;;8362047;28;20419;-90
2023/09/14 00:35:16;;;;;;;45.90;25.30;;;;;;;;;;8361984;28;20117;-92
2023/09/14 00:39:19;;;;;;;49.20;25.92;;;;;;;;;;8343975;28;20053;-92
2023/09/14 00:43:22;;;;;;;61.78;28.45;;;;;;;;;;8331414;28;20049;-92
2023/09/14 00:47:25;;;;;;;60.05;29.90;;;;;;;;;;8341016;28;20045;-91
2023/09/14 00:51:32;;;;;;;47.75;24.88;;;;;;;;;;8349884;28;20404;-93
2023/09/14 00:55:49;;;;;;;39.20;25.15;;;;;;;;;;8362208;28;20053;-92
2023/09/14 00:59:54;;;;;;;35.88;23.15;;;;;;;;;;8333649;28;20048;-93
2023/09/14 01:03:57;;;;;;;42.58;22.88;;;;;;;;;;8371724;28;20069;-92
2023/09/14 01:08:05;;;;;;;38.65;23.33;;;;;;;;;;8338700;28;20059;-93
2023/09/14 01:12:09;;;;;;;37.55;21.38;;;;;;;;;;8377905;28;20051;-92
2023/09/14 01:16:16;;;;;;;35.92;21.05;;;;;;;;;;8368448;28;20052;-91
2023/09/14 01:20:41;;;;;;;34.13;21.00;;;;;;;;;;8357838;28;20412;-92
2023/09/14 01:24:54;;;;;;;32.75;19.33;;;;;;;;;;8325572;28;20041;-92
2023/09/14 01:28:59;;;;;;;26.60;16.63;;;;;;;;;;8342182;28;20490;-91
2023/09/14 01:33:02;;;;;;;21.77;15.25;;;;;;;;;;8378332;28;20045;-92
2023/09/14 01:37:06;;;;;;;20.73;14.65;;;;;;;;;;8355084;28;20045;-92
2023/09/14 01:41:10;;;;;;;20.05;14.38;;;;;;;;;;8344620;28;20048;-92
2023/09/14 01:45:15;;;;;;;23.02;13.55;;;;;;;;;;8359004;28;20047;-92
2023/09/14 01:49:17;;;;;;;25.10;15.27;;;;;;;;;;8367694;28;20041;-93
2023/09/14 01:53:23;;;;;;;22.25;15.82;;;;;;;;;;8352752;28;20112;-91
2023/09/14 01:57:27;;;;;;;23.58;16.20;;;;;;;;;;8325409;28;20144;-91
2023/09/14 02:01:31;;;;;;;24.38;16.40;;;;;;;;;;8353325;28;20041;-91
2023/09/14 02:05:34;;;;;;;25.20;17.20;;;;;;;;;;8366495;28;20086;-92
2023/09/14 02:09:37;;;;;;;23.85;17.02;;;;;;;;;;8343490;28;20128;-92
2023/09/14 02:13:40;;;;;;;26.42;16.52;;;;;;;;;;8365831;28;20055;-90
2023/09/14 02:17:45;;;;;;;23.10;16.42;;;;;;;;;;8365653;28;20503;-91
2023/09/14 02:21:49;;;;;;;23.50;16.98;;;;;;;;;;8350842;28;20045;-90
2023/09/14 02:25:52;;;;;;;24.73;16.42;;;;;;;;;;8365780;28;20464;-91
2023/09/14 02:29:55;;;;;;;24.52;17.25;;;;;;;;;;8344176;28;20060;-91
2023/09/14 02:34:02;;;;;;;22.15;15.88;;;;;;;;;;8343527;28;20485;-92
2023/09/14 02:38:05;;;;;;;22.35;15.98;;;;;;;;;;8357389;28;20056;-91
2023/09/14 02:42:08;;;;;;;24.52;16.17;;;;;;;;;;8340086;28;20049;-92
2023/09/14 02:46:11;;;;;;;21.15;15.48;;;;;;;;;;8365405;28;20106;-92
2023/09/14 02:50:18;;;;;;;23.95;17.15;;;;;;;;;;8364873;28;20408;-91
2023/09/14 02:54:21;;;;;;;29.08;18.58;;;;;;;;;;8351339;28;20042;-91
2023/09/14 02:58:24;;;;;;;35.45;20.15;;;;;;;;;;8364639;28;20508;-91
2023/09/14 03:02:30;;;;;;;36.28;21.80;;;;;;;;;;8344577;28;20045;-91
2023/09/14 03:06:36;;;;;;;32.80;21.10;;;;;;;;;;8354217;28;20124;-92
2023/09/14 03:10:42;;;;;;;40.33;24.30;;;;;;;;;;8341405;28;20061;-92
2023/09/14 03:14:45;;;;;;;35.47;21.63;;;;;;;;;;8364249;28;20500;-92
2023/09/14 03:18:48;;;;;;;33.35;19.67;;;;;;;;;;8354137;28;20108;-91
2023/09/14 03:22:52;;;;;;;31.58;19.40;;;;;;;;;;8363547;28;20125;-91
2023/09/14 03:26:57;;;;;;;35.33;19.48;;;;;;;;;;8363658;28;20554;-90
2023/09/14 03:31:00;;;;;;;31.60;19.00;;;;;;;;;;8347700;28;20049;-92
2023/09/14 03:35:03;;;;;;;29.63;18.10;;;;;;;;;;8350758;28;20072;-92
2023/09/14 03:39:12;;;;;;;32.55;19.00;;;;;;;;;;8363830;28;20571;-90
2023/09/14 03:43:15;;;;;;;34.58;20.23;;;;;;;;;;8339602;28;20045;-91
2023/09/14 03:47:18;;;;;;;38.42;20.90;;;;;;;;;;8344723;28;20155;-90
2023/09/14 03:51:21;;;;;;;47.15;22.80;;;;;;;;;;8362853;28;20041;-91
2023/09/14 03:55:26;;;;;;;43.95;22.20;;;;;;;;;;8329004;28;20204;-90
2023/09/14 03:59:29;;;;;;;46.50;23.40;;;;;;;;;;8354398;28;20537;-91
2023/09/14 04:03:32;;;;;;;46.40;22.77;;;;;;;;;;8363320;28;20124;-92
2023/09/14 04:07:35;;;;;;;48.42;23.48;;;;;;;;;;8363295;28;20495;-92
2023/09/14 04:11:39;;;;;;;43.50;23.60;;;;;;;;;;8355708;28;20038;-92
2023/09/14 04:15:42;;;;;;;39.13;23.85;;;;;;;;;;8361151;28;20045;-91
2023/09/14 04:19:46;;;;;;;38.92;21.67;;;;;;;;;;8362366;28;20045;-92
2023/09/14 04:23:49;;;;;;;33.75;21.83;;;;;;;;;;8360050;28;20098;-90
2023/09/14 04:27:53;;;;;;;40.38;24.75;;;;;;;;;;8362555;28;20056;-90
2023/09/14 04:31:58;;;;;;;40.13;24.00;;;;;;;;;;8350265;28;20069;-91
2023/09/14 04:36:05;;;;;;;41.38;23.98;;;;;;;;;;8345589;28;20049;-91
2023/09/14 04:40:09;;;;;;;40.50;22.33;;;;;;;;;;8351382;28;20052;-92
2023/09/14 04:44:13;;;;;;;27.98;17.83;;;;;;;;;;8346094;28;20049;-91
2023/09/14 04:48:16;;;;;;;29.23;18.67;;;;;;;;;;8368407;28;20033;-91
2023/09/14 04:52:21;;;;;;;26.42;17.20;;;;;;;;;;8374187;28;20094;-91
2023/09/14 04:56:24;;;;;;;25.73;16.50;;;;;;;;;;8356030;28;20084;-91
2023/09/14 05:00:29;;;;;;;28.55;16.70;;;;;;;;;;8355630;28;20049;-92
2023/09/14 05:04:32;;;;;;;20.52;12.95;;;;;;;;;;8354792;28;20116;-92
2023/09/14 05:08:35;;;;;;;19.60;13.48;;;;;;;;;;8449238;23;20070;-92
2023/09/14 05:12:41;;;;;;;24.30;14.73;;;;;;;;;;8249449;28;20046;-91
2023/09/14 05:22:25;;;;;;;18.08;13.23;;;;;;;;;;8249339;28;20070;-91
2023/09/14 05:26:28;;;;;;;13.82;9.32;;;;;;;;;;8225533;28;20064;-91
2023/09/14 05:30:32;;;;;;;12.70;8.60;;;;;;;;;;8250468;28;20129;-90
2023/09/14 05:34:37;;;;;;;12.20;8.68;;;;;;;;;;8243897;28;20044;-90
2023/09/14 05:38:41;;;;;;;12.43;8.30;;;;;;;;;;8235879;28;20042;-90
2023/09/14 05:42:44;;;;;;;12.90;7.82;;;;;;;;;;8223795;28;20200;-92
2023/09/14 05:46:47;;;;;;;9.07;6.85;;;;;;;;;;8247036;28;20050;-90
2023/09/14 05:50:50;;;;;;;11.27;7.25;;;;;;;;;;8252876;28;20122;-90
2023/09/14 05:54:57;;;;;;;9.48;6.82;;;;;;;;;;8222583;28;20088;-91
2023/09/14 05:59:00;;;;;;;11.60;7.13;;;;;;;;;;8251564;28;20057;-91
2023/09/14 06:03:03;;;;;;;11.30;6.90;;;;;;;;;;8238939;28;20054;-88
2023/09/14 06:07:06;;;;;;;9.90;6.47;;;;;;;;;;8223625;28;20074;-90
2023/09/14 06:11:11;;;;;;;11.88;6.78;;;;;;;;;;8226239;28;20073;-92
2023/09/14 06:15:14;;;;;;;10.82;6.20;;;;;;;;;;8270103;23;20053;-92
2023/09/14 06:19:17;;;;;;;12.68;5.95;;;;;;;;;;8278174;28;20402;-90
2023/09/14 06:23:23;;;;;;;8.48;5.65;;;;;;;;;;8268914;28;20074;-89
2023/09/14 06:27:34;;;;;;;11.68;5.60;;;;;;;;;;8246328;28;20054;-90
2023/09/14 06:31:57;;;;;;;7.88;5.07;;;;;;;;;;8272033;28;20050;-91
2023/09/14 06:36:00;;;;;;;8.13;4.78;;;;;;;;;;8273226;28;20047;-91
2023/09/14 06:40:08;;;;;;;6.88;4.30;;;;;;;;;;8275920;28;20043;-92
2023/09/14 06:44:13;;;;;;;6.18;4.22;;;;;;;;;;8256232;28;20039;-91
2023/09/14 06:48:16;;;;;;;6.32;3.85;;;;;;;;;;8270109;28;20049;-92
2023/09/14 06:52:27;;;;;;;5.28;3.50;;;;;;;;;;8269932;28;20049;-96
2023/09/14 06:56:30;;;;;;;5.13;3.37;;;;;;;;;;8256705;28;20066;-91
2023/09/14 07:00:35;;;;;;;5.70;3.33;;;;;;;;;;8268178;28;20050;-91
2023/09/14 07:04:38;;;;;;;4.47;2.90;;;;;;;;;;8275205;28;20410;-90
2023/09/14 07:08:42;;;;;;;5.15;3.40;;;;;;;;;;8283433;28;20042;-91
2023/09/14 07:12:45;;;;;;;5.45;3.08;;;;;;;;;;8258224;28;20144;-92
2023/09/14 07:16:53;;;;;;;4.63;3.00;;;;;;;;;;8244697;28;20055;-92
2023/09/14 07:20:58;;;;;;;7.40;2.72;;;;;;;;;;8250744;28;20065;-92
2023/09/14 07:25:01;;;;;;;5.05;2.65;;;;;;;;;;8274581;28;20061;-92
2023/09/14 07:29:05;;;;;;;3.83;2.60;;;;;;;;;;8241207;28;20053;-93
2023/09/14 07:33:11;;;;;;;4.32;2.70;;;;;;;;;;8248221;28;20509;-91
2023/09/14 07:37:14;;;;;;;3.45;2.60;;;;;;;;;;8256217;28;20130;-91
2023/09/14 07:41:17;;;;;;;3.67;2.47;;;;;;;;;;8247538;28;20481;-91
2023/09/14 07:45:20;;;;;;;4.40;2.42;;;;;;;;;;8267410;28;20526;-93
2023/09/14 07:49:25;;;;;;;3.75;2.30;;;;;;;;;;8241927;28;20072;-92
2023/09/14 07:53:28;;;;;;;3.90;2.17;;;;;;;;;;8228477;28;20045;-92
2023/09/14 07:57:31;;;;;;;3.78;2.10;;;;;;;;;;8243238;28;20418;-90
2023/09/14 08:01:33;;;;;;;4.03;2.30;;;;;;;;;;8240570;28;20118;-92
2023/09/14 08:05:38;;;;;;;3.90;2.25;;;;;;;;;;8241197;28;20751;-88
2023/09/14 08:09:45;;;;;;;3.92;2.30;;;;;;;;;;8234402;28;20053;-91
2023/09/14 08:13:48;;;;;;;3.35;2.00;;;;;;;;;;8223058;28;20133;-91
2023/09/14 08:17:51;;;;;;;2.65;1.92;;;;;;;;;;8249333;28;20062;-90
2023/09/14 08:21:59;;;;;;;3.22;2.20;;;;;;;;;;8237910;28;20055;-89
2023/09/14 08:26:06;;;;;;;3.05;1.98;;;;;;;;;;8251423;28;20042;-89
2023/09/14 08:30:11;;;;;;;5.00;2.30;;;;;;;;;;8236323;28;20065;-90
2023/09/14 08:34:14;;;;;;;3.33;1.80;;;;;;;;;;8244879;28;20453;-89
2023/09/14 08:38:21;;;;;;;3.67;2.10;;;;;;;;;;8234239;28;20043;-90
2023/09/14 08:42:27;;;;;;;2.10;1.88;;;;;;;;;;8257495;28;20051;-89
2023/09/14 08:46:30;;;;;;;4.05;2.28;;;;;;;;;;8255586;28;20046;-89
2023/09/14 08:55:36;;;;;;;2.30;1.75;;;;;;;;;;8173666;28;20058;-90
2023/09/14 08:59:40;;;;;;;5.65;3.28;;;;;;;;;;8225696;28;20138;-90
2023/09/14 09:03:43;;;;;;;11.52;6.78;;;;;;;;;;8238982;28;20057;-91
2023/09/14 09:07:48;;;;;;;4.53;2.80;;;;;;;;;;8247665;28;20096;-91
2023/09/14 09:11:53;;;;;;;4.18;2.45;;;;;;;;;;8254914;28;20059;-90
2023/09/14 09:15:57;;;;;;;3.38;1.95;;;;;;;;;;8238886;28;20086;-89
2023/09/14 09:20:12;;;;;;;2.35;1.63;;;;;;;;;;8245527;28;20058;-92
2023/09/14 09:24:27;;;;;;;3.45;2.05;;;;;;;;;;8255745;28;20421;-89
2023/09/14 09:28:35;;;;;;;2.33;1.40;;;;;;;;;;8216828;28;20150;-89
2023/09/14 09:32:39;;;;;;;2.20;1.40;;;;;;;;;;8246025;28;20053;-90
2023/09/14 09:36:41;;;;;;;3.08;1.95;;;;;;;;;;8247542;28;20050;-89
2023/09/14 09:40:46;;;;;;;1.50;1.35;;;;;;;;;;8221854;28;20057;-88
2023/09/14 09:44:59;;;;;;;2.90;1.52;;;;;;;;;;8261592;28;20050;-88
2023/09/14 09:49:02;;;;;;;1.55;1.40;;;;;;;;;;8232520;28;20047;-90
2023/09/14 09:53:11;;;;;;;5.75;2.85;;;;;;;;;;8237834;28;20057;-90
2023/09/14 09:57:15;;;;;;;2.90;1.38;;;;;;;;;;8242590;28;20802;-88
2023/09/14 10:01:25;;;;;;;2.95;1.50;;;;;;;;;;8243970;28;20519;-91
2023/09/14 10:05:29;;;;;;;1.77;1.50;;;;;;;;;;8249774;28;20046;-89
2023/09/14 10:09:35;;;;;;;2.65;1.63;;;;;;;;;;8236039;28;20084;-89
2023/09/14 10:13:38;;;;;;;5.15;2.42;;;;;;;;;;8242224;28;20050;-91
2023/09/14 10:17:43;;;;;;;4.90;1.90;;;;;;;;;;8241819;28;20062;-89
2023/09/14 10:21:48;;;;;;;3.08;1.70;;;;;;;;;;8233286;28;20082;-88
2023/09/14 10:25:52;;;;;;;3.03;1.55;;;;;;;;;;8251866;28;20085;-89
2023/09/14 10:29:56;;;;;;;2.30;1.52;;;;;;;;;;8229666;28;20085;-88
2023/09/14 10:34:04;;;;;;;2.40;1.70;;;;;;;;;;8225664;28;20483;-90
2023/09/14 10:38:07;;;;;;;4.47;2.25;;;;;;;;;;8253260;28;20054;-89
2023/09/14 10:42:10;;;;;;;3.58;2.30;;;;;;;;;;8243679;28;20042;-89
2023/09/14 10:46:18;;;;;;;2.92;2.00;;;;;;;;;;8243684;28;20068;-89
2023/09/14 10:50:23;;;;;;;3.83;2.20;;;;;;;;;;8251455;28;20050;-89
2023/09/14 10:54:27;;;;;;;2.78;1.90;;;;;;;;;;8248868;28;20041;-90
2023/09/14 10:58:41;;;;;;;3.17;2.58;;;;;;;;;;8234495;28;20731;-89
2023/09/14 11:02:57;;;;;;;4.53;2.05;;;;;;;;;;8244388;28;20463;-90
2023/09/14 11:07:04;;;;;;;3.45;2.30;;;;;;;;;;8234994;28;20050;-89
2023/09/14 11:11:07;;;;;;;4.63;2.38;;;;;;;;;;8230590;28;20054;-88
2023/09/14 11:15:14;;;;;;;3.25;2.15;;;;;;;;;;8246086;28;20153;-89
2023/09/14 11:19:45;;;;;;;3.72;2.38;;;;;;;;;;8248828;28;20057;-89
2023/09/14 11:23:53;;;;;;;4.43;2.40;;;;;;;;;;8242878;28;20054;-90
2023/09/14 11:27:57;;;;;;;3.90;2.50;;;;;;;;;;8248226;28;20110;-90
2023/09/14 11:32:02;;;;;;;12.30;2.78;;;;;;;;;;8262034;28;20056;-91
2023/09/14 11:36:06;;;;;;;3.97;2.70;;;;;;;;;;8247141;28;20046;-91
2023/09/14 11:40:15;;;;;;;3.60;2.40;;;;;;;;;;8234695;28;20046;-90
2023/09/14 11:44:18;;;;;;;4.88;2.40;;;;;;;;;;8256802;28;20508;-90
2023/09/14 11:48:22;;;;;;;3.95;2.50;;;;;;;;;;8225015;28;20056;-89
2023/09/14 11:52:27;;;;;;;3.65;2.45;;;;;;;;;;8252270;28;20046;-89
2023/09/14 11:56:33;;;;;;;5.55;2.75;;;;;;;;;;8230514;28;20055;-90
2023/09/14 12:00:46;;;;;;;4.43;2.60;;;;;;;;;;8266248;28;20026;-92
2023/09/14 12:04:54;;;;;;;4.70;2.70;;;;;;;;;;8256575;28;20046;-91
2023/09/14 12:08:58;;;;;;;6.53;3.60;;;;;;;;;;8232208;28;20807;-90
2023/09/14 12:13:14;;;;;;;5.55;3.45;;;;;;;;;;8234759;28;20380;-89
2023/09/14 12:17:22;;;;;;;6.78;3.63;;;;;;;;;;8263269;28;20037;-90
2023/09/14 12:21:25;;;;;;;7.15;3.85;;;;;;;;;;8258541;28;20050;-89
2023/09/14 12:25:29;;;;;;;5.68;3.88;;;;;;;;;;8238244;28;20045;-89
2023/09/14 12:29:34;;;;;;;7.72;3.92;;;;;;;;;;8248914;28;20592;-91
2023/09/14 12:38:31;;;;;;;4.85;3.60;;;;;;;;;;8244538;28;20132;-89
2023/09/14 12:42:36;;;;;;;6.97;3.58;;;;;;;;;;8255865;28;20497;-90
2023/09/14 12:46:40;;;;;;;9.63;4.45;;;;;;;;;;8263287;28;20069;-90
2023/09/14 12:50:58;;;;;;;7.03;3.88;;;;;;;;;;8258934;28;20058;-90
2023/09/14 12:55:05;;;;;;;5.97;3.85;;;;;;;;;;8265580;28;20465;-89
2023/09/14 12:59:08;;;;;;;5.05;3.38;;;;;;;;;;8269367;28;20054;-89
2023/09/14 13:03:17;;;;;;;5.22;3.33;;;;;;;;;;8260632;28;20066;-90
2023/09/14 13:07:21;;;;;;;6.65;3.40;;;;;;;;;;8279620;28;20096;-90
2023/09/14 13:11:26;;;;;;;5.57;3.30;;;;;;;;;;8265699;28;20038;-89
2023/09/14 13:15:31;;;;;;;3.75;2.90;;;;;;;;;;8273486;28;20414;-90
2023/09/14 13:19:37;;;;;;;5.63;3.28;;;;;;;;;;8251512;28;20054;-90
2023/09/14 13:23:41;;;;;;;4.18;2.50;;;;;;;;;;8275687;28;20113;-90
2023/09/14 13:27:44;;;;;;;5.00;3.05;;;;;;;;;;8274099;28;20038;-92
2023/09/14 13:31:47;;;;;;;6.30;2.80;;;;;;;;;;8277754;28;20088;-90
2023/09/14 13:35:54;;;;;;;5.90;2.95;;;;;;;;;;8276554;28;20050;-87
2023/09/14 13:39:57;;;;;;;5.90;2.90;;;;;;;;;;8288433;28;20743;-91
2023/09/14 13:44:00;;;;;;;10.10;3.85;;;;;;;;;;8273094;28;20039;-90
2023/09/14 13:48:03;;;;;;;4.47;2.90;;;;;;;;;;8263027;28;20133;-89
2023/09/14 13:52:08;;;;;;;4.03;2.45;;;;;;;;;;8262205;28;20046;-88
2023/09/14 13:56:11;;;;;;;3.67;2.80;;;;;;;;;;8265177;28;20089;-88
2023/09/14 14:00:16;;;;;;;4.60;3.00;;;;;;;;;;8271461;28;20088;-88
2023/09/14 14:04:19;;;;;;;4.85;2.67;;;;;;;;;;8268878;28;20092;-89
2023/09/14 14:08:25;;;;;;;3.80;2.78;;;;;;;;;;8252294;28;20153;-90
2023/09/14 14:12:28;;;;;;;6.57;3.03;;;;;;;;;;8275570;28;20065;-90
2023/09/14 14:16:31;;;;;;;3.42;2.30;;;;;;;;;;8268161;28;20062;-91
2023/09/14 14:20:35;;;;;;;3.30;2.33;;;;;;;;;;8268101;28;20050;-90
2023/09/14 14:24:40;;;;;;;3.40;2.20;;;;;;;;;;8251075;28;20042;-88
2023/09/14 14:28:42;;;;;;;3.72;2.25;;;;;;;;;;8267842;28;20048;-91
2023/09/14 14:32:46;;;;;;;4.35;2.30;;;;;;;;;;8255387;28;20060;-86
2023/09/14 14:36:49;;;;;;;3.17;2.55;;;;;;;;;;8267530;28;20084;-90
2023/09/14 14:40:53;;;;;;;4.72;3.00;;;;;;;;;;8267694;28;20046;-90
2023/09/14 14:44:57;;;;;;;4.57;2.75;;;;;;;;;;8263898;28;20053;-89
2023/09/14 14:49:00;;;;;;;4.07;2.60;;;;;;;;;;8259436;28;20052;-89
2023/09/14 14:53:04;;;;;;;4.00;2.88;;;;;;;;;;8254171;28;20078;-89
2023/09/14 14:57:10;;;;;;;5.03;2.70;;;;;;;;;;8270341;28;20046;-90
2023/09/14 15:01:13;;;;;;;4.43;2.83;;;;;;;;;;8267178;28;20046;-89
2023/09/14 15:05:18;;;;;;;3.92;2.92;;;;;;;;;;8266441;28;20550;-88
2023/09/14 15:09:21;;;;;;;4.93;3.08;;;;;;;;;;8266664;28;20050;-89
2023/09/14 15:13:27;;;;;;;5.22;3.15;;;;;;;;;;8249529;28;20061;-89
2023/09/14 15:17:32;;;;;;;5.00;3.15;;;;;;;;;;8274652;28;20077;-91
2023/09/14 15:25:54;;;;;;;6.03;3.45;;;;;;;;;;8236074;28;20124;-89
2023/09/14 15:30:00;;;;;;;6.10;2.95;;;;;;;;;;8250261;28;20781;-90
2023/09/14 15:34:04;;;;;;;6.93;3.10;;;;;;;;;;8244464;28;20137;-89
2023/09/14 15:38:09;;;;;;;4.40;2.80;;;;;;;;;;8247500;28;20059;-89
2023/09/14 15:42:14;;;;;;;5.00;3.10;;;;;;;;;;8256933;28;20061;-89
2023/09/14 15:46:22;;;;;;;6.88;3.45;;;;;;;;;;8230749;28;20101;-88
2023/09/14 15:50:25;;;;;;;7.18;3.10;;;;;;;;;;8218010;28;20055;-89
2023/09/14 15:54:30;;;;;;;4.53;3.17;;;;;;;;;;8218595;28;20132;-91
2023/09/14 15:58:37;;;;;;;5.53;3.08;;;;;;;;;;8262844;28;20109;-89
2023/09/14 16:02:42;;;;;;;4.90;2.92;;;;;;;;;;8220011;28;20088;-90
2023/09/14 16:06:50;;;;;;;7.70;3.67;;;;;;;;;;8218666;28;20074;-89
2023/09/14 16:10:57;;;;;;;4.47;3.40;;;;;;;;;;8231262;28;20058;-92
2023/09/14 16:15:01;;;;;;;4.63;2.80;;;;;;;;;;8247791;28;20141;-91
2023/09/14 16:19:07;;;;;;;5.47;3.15;;;;;;;;;;8223690;28;20415;-88
2023/09/14 16:23:12;;;;;;;6.15;3.50;;;;;;;;;;8212480;28;20051;-90
2023/09/14 16:27:17;;;;;;;5.05;3.45;;;;;;;;;;8222546;28;20305;-89
2023/09/14 16:31:26;;;;;;;4.93;3.42;;;;;;;;;;8241745;28;20119;-91
2023/09/14 16:35:32;;;;;;;7.40;4.43;;;;;;;;;;8247821;28;20383;-90
2023/09/14 16:39:45;;;;;;;6.35;3.85;;;;;;;;;;8231666;28;20153;-91
2023/09/14 16:43:54;;;;;;;9.50;5.25;;;;;;;;;;8265598;28;20053;-89
2023/09/14 16:52:59;;;;;;;9.77;6.10;;;;;;;;;;8244742;28;20129;-91
2023/09/14 16:57:06;;;;;;;13.20;7.28;;;;;;;;;;8447423;23;20521;-94
2023/09/14 17:01:11;;;;;;;15.68;8.00;;;;;;;;;;8198643;28;20759;-94
2023/09/14 17:09:53;;;;;;;22.90;8.82;;;;;;;;;;8194250;28;20616;-93
2023/09/14 17:14:00;;;;;;;15.40;7.75;;;;;;;;;;8202684;28;20059;-95
2023/09/14 17:18:07;;;;;;;15.88;8.05;;;;;;;;;;8216099;28;20071;-93
2023/09/14 17:22:12;;;;;;;16.77;8.38;;;;;;;;;;8192150;28;20127;-91
2023/09/14 17:26:18;;;;;;;17.23;7.85;;;;;;;;;;8186600;28;20082;-94
2023/09/14 17:30:22;;;;;;;20.33;8.77;;;;;;;;;;8192476;28;20043;-90
2023/09/14 17:34:28;;;;;;;19.27;9.45;;;;;;;;;;8190156;28;20047;-90
2023/09/14 17:38:32;;;;;;;18.40;8.73;;;;;;;;;;8186233;28;20062;-90
2023/09/14 17:42:39;;;;;;;24.42;9.38;;;;;;;;;;8189647;28;20047;-90
2023/09/14 17:46:51;;;;;;;25.85;10.32;;;;;;;;;;8185605;28;20047;-90
2023/09/14 17:50:55;;;;;;;30.70;11.45;;;;;;;;;;8182566;28;20054;-90
2023/09/14 17:54:59;;;;;;;24.73;9.98;;;;;;;;;;8184937;28;20043;-90
2023/09/14 17:59:08;;;;;;;20.25;9.07;;;;;;;;;;8193822;28;20051;-91
2023/09/14 18:03:12;;;;;;;17.63;8.50;;;;;;;;;;8199468;28;20039;-91
2023/09/14 18:07:16;;;;;;;18.27;8.48;;;;;;;;;;8187857;28;20052;-90
2023/09/14 18:11:24;;;;;;;23.30;10.77;;;;;;;;;;8202157;28;20054;-92
2023/09/14 18:15:35;;;;;;;16.23;6.80;;;;;;;;;;8187899;28;20055;-91
2023/09/14 18:19:42;;;;;;;12.05;5.97;;;;;;;;;;8203123;28;20101;-90
2023/09/14 18:23:46;;;;;;;8.73;5.30;;;;;;;;;;8204120;28;20043;-91
2023/09/14 18:27:50;;;;;;;9.55;4.95;;;;;;;;;;8204010;28;20475;-91
2023/09/14 18:31:59;;;;;;;8.20;5.25;;;;;;;;;;8203635;28;20118;-91
2023/09/14 18:36:04;;;;;;;8.57;5.20;;;;;;;;;;8203691;28;20047;-90
2023/09/14 18:40:11;;;;;;;7.82;5.28;;;;;;;;;;8214101;28;20475;-91
2023/09/14 18:44:17;;;;;;;7.95;5.10;;;;;;;;;;8136250;29;20063;-90
2023/09/14 18:48:37;;;;;;;12.20;5.68;;;;;;;;;;8146083;29;20048;-89
2023/09/14 18:52:55;;;;;;;10.80;5.57;;;;;;;;;;8154574;29;20543;-90
2023/09/14 18:57:02;;;;;;;10.13;5.15;;;;;;;;;;8154991;29;20120;-89
2023/09/14 19:01:08;;;;;;;10.30;5.47;;;;;;;;;;8152740;29;20044;-89
2023/09/14 19:05:22;;;;;;;10.63;5.45;;;;;;;;;;8152158;29;20060;-89
2023/09/14 19:09:32;;;;;;;9.73;5.07;;;;;;;;;;8137769;29;20155;-93
2023/09/14 19:18:04;;;;;;;7.03;4.75;;;;;;;;;;8124752;29;20063;-90
2023/09/14 19:22:26;;;;;;;8.27;4.50;;;;;;;;;;8134288;29;20048;-92
2023/09/14 19:31:16;;;;;;;9.77;4.72;;;;;;;;;;8224198;28;20061;-91
2023/09/14 19:35:21;;;;;;;11.02;5.32;;;;;;;;;;8204499;28;20065;-92
2023/09/14 19:44:12;;;;;;;8.00;4.63;;;;;;;;;;8224219;28;20066;-89
2023/09/14 19:48:18;;;;;;;8.52;4.30;;;;;;;;;;8185128;28;20063;-91
2023/09/14 19:57:40;;;;;;;7.18;4.15;;;;;;;;;;8227640;28;20059;-91
2023/09/14 20:02:06;;;;;;;6.75;3.67;;;;;;;;;;8213340;28;20130;-90
2023/09/14 20:06:24;;;;;;;5.88;3.80;;;;;;;;;;8218810;28;20047;-90
2023/09/14 20:11:15;;;;;;;5.90;3.47;;;;;;;;;;8206222;28;20551;-90
2023/09/14 20:24:20;;;;;;;6.03;3.33;;;;;;;;;;8171196;29;20116;-91
2023/09/14 20:29:03;;;;;;;6.43;3.63;;;;;;;;;;8166260;29;20052;-90
2023/09/14 20:33:34;;;;;;;8.48;3.60;;;;;;;;;;8116876;29;20063;-90
2023/09/14 20:37:43;;;;;;;6.57;3.30;;;;;;;;;;8146716;29;20067;-89
2023/09/14 20:41:56;;;;;;;6.53;3.67;;;;;;;;;;8150682;29;20052;-90
2023/09/14 20:46:02;;;;;;;4.70;3.50;;;;;;;;;;8145813;29;20048;-90
2023/09/14 20:50:40;;;;;;;6.47;3.42;;;;;;;;;;8161716;29;20052;-90
2023/09/14 20:54:57;;;;;;;;;;;;;;;;;;8197563;29;20067;-91
2023/09/14 21:03:27;;;;;;;5.80;3.63;;;;;;;;;;8217323;28;20047;-89
2023/09/14 21:07:58;;;;;;;6.53;3.65;;;;;;;;;;8223658;28;20094;-90
2023/09/14 21:12:13;;;;;;;5.47;3.50;;;;;;;;;;8223713;28;20039;-89
2023/09/14 21:16:19;;;;;;;6.05;3.55;;;;;;;;;;8195035;29;20062;-93
2023/09/14 21:25:47;;;;;;;4.47;3.38;;;;;;;;;;8236445;28;20038;-91
2023/09/14 21:30:15;;;;;;;7.00;3.58;;;;;;;;;;8248060;28;20047;-91
2023/09/14 21:34:32;;;;;;;4.63;3.55;;;;;;;;;;8224149;28;20311;-92
2023/09/14 21:39:28;;;;;;;6.57;3.35;;;;;;;;;;8212197;28;20174;-92
2023/09/14 21:43:51;;;;;;;5.63;3.55;;;;;;;;;;8119320;29;20064;-91
2023/09/14 21:48:04;;;;;;;7.70;3.80;;;;;;;;;;8098048;29;20052;-92
2023/09/14 21:52:13;;;;;;;5.68;3.63;;;;;;;;;;8116203;29;20048;-91
2023/09/14 21:56:35;;;;;;;6.10;3.65;;;;;;;;;;8151409;29;20024;-92
2023/09/14 22:05:34;;;;;;;5.80;3.28;;;;;;;;;;8104623;29;20061;-90
2023/09/14 22:14:48;;;;;;;5.80;3.25;;;;;;;;;;8063659;29;20065;-91
2023/09/14 22:18:58;;;;;;;7.07;3.55;;;;;;;;;;8143892;29;20065;-91
2023/09/14 22:23:27;;;;;;;7.93;3.42;;;;;;;;;;8165708;29;20059;-91
2023/09/14 22:27:33;;;;;;;7.97;3.55;;;;;;;;;;8175315;29;20123;-90
2023/09/14 22:31:43;;;;;;;6.78;3.13;;;;;;;;;;8176842;29;20059;-90
2023/09/14 22:36:18;;;;;;;5.82;3.00;;;;;;;;;;8204980;28;20047;-91
2023/09/14 22:40:33;;;;;;;6.72;3.20;;;;;;;;;;8212094;28;20059;-91
2023/09/14 22:44:40;;;;;;;6.03;3.35;;;;;;;;;;8221780;28;20051;-93
2023/09/14 22:48:59;;;;;;;5.97;3.58;;;;;;;;;;8224464;28;20105;-91
2023/09/14 22:53:11;;;;;;;6.75;3.25;;;;;;;;;;8206569;28;20119;-91
2023/09/14 22:57:17;;;;;;;4.70;3.42;;;;;;;;;;8232808;28;20059;-91
2023/09/14 23:01:26;;;;;;;5.55;3.10;;;;;;;;;;8214253;28;21283;-92
2023/09/14 23:06:06;;;;;;;5.63;3.15;;;;;;;;;;8226296;28;20046;-91
2023/09/14 23:10:18;;;;;;;6.68;3.40;;;;;;;;;;8000264;29;20082;-91
2023/09/14 23:22:49;;;;;;;7.65;3.55;;;;;;;;;;8238924;26;20029;-91
2023/09/14 23:27:24;;;;;;;6.07;3.42;;;;;;;;;;8348379;28;20119;-93
2023/09/14 23:44:48;;;;;;;6.05;3.67;;;;;;;;;;8376359;28;20088;-90
2023/09/14 23:49:27;;;;;;;8.90;3.67;;;;;;;;;;8286941;28;20059;-91
2023/09/14 23:54:07;;;;;;;7.18;3.67;;;;;;;;;;8298626;28;20105;-91
2023/09/14 23:58:14;;;;;;;8.95;3.00;;;;;;;;;;8281207;28;20082;-92
